sensor_id;sensor_type;location;lat;lon;timestamp;P1;durP1;ratioP1;P2;durP2;ratioP2
5277;SDS011;2662;51.194;6.614;2023-03-12T00:01:34;3.87;;;3.07;;
5277;SDS011;2662;51.194;6.614;2023-03-12T00:04:02;8.00;;;3.50;;
5277;SDS011;2662;51.194;6.614;2023-03-12T00:06:30;4.10;;;3.30;;
5277;SDS011;2662;51.194;6.614;2023-03-12T00:08:57;5.73;;;3.43;;
5277;SDS011;2662;51.194;6.614;2023-03-12T00:11:25;11.43;;;3.70;;
5277;SDS011;2662;51.194;6.614;2023-03-12T00:13:54;6.57;;;3.73;;
5277;SDS011;2662;51.194;6.614;2023-03-12T00:16:22;4.47;;;3.30;;
5277;SDS011;2662;51.194;6.614;2023-03-12T00:18:50;5.90;;;2.97;;
5277;SDS011;2662;51.194;6.614;2023-03-12T00:21:18;6.20;;;3.70;;
5277;SDS011;2662;51.194;6.614;2023-03-12T00:23:48;5.10;;;3.63;;
5277;SDS011;2662;51.194;6.614;2023-03-12T00:26:15;5.70;;;3.60;;
5277;SDS011;2662;51.194;6.614;2023-03-12T00:28:42;7.13;;;3.87;;
5277;SDS011;2662;51.194;6.614;2023-03-12T00:31:12;5.80;;;3.60;;
5277;SDS011;2662;51.194;6.614;2023-03-12T00:33:40;6.43;;;4.07;;
5277;SDS011;2662;51.194;6.614;2023-03-12T00:36:08;7.53;;;4.10;;
5277;SDS011;2662;51.194;6.614;2023-03-12T00:38:35;8.13;;;4.30;;
5277;SDS011;2662;51.194;6.614;2023-03-12T00:41:03;5.87;;;3.87;;
5277;SDS011;2662;51.194;6.614;2023-03-12T00:43:30;10.83;;;4.70;;
5277;SDS011;2662;51.194;6.614;2023-03-12T00:45:57;21.63;;;5.27;;
5277;SDS011;2662;51.194;6.614;2023-03-12T00:48:24;9.90;;;4.40;;
5277;SDS011;2662;51.194;6.614;2023-03-12T00:50:51;7.50;;;5.13;;
5277;SDS011;2662;51.194;6.614;2023-03-12T00:53:18;5.77;;;4.30;;
5277;SDS011;2662;51.194;6.614;2023-03-12T00:55:44;12.30;;;5.43;;
5277;SDS011;2662;51.194;6.614;2023-03-12T00:58:12;10.27;;;5.37;;
5277;SDS011;2662;51.194;6.614;2023-03-12T01:00:39;17.60;;;5.30;;
5277;SDS011;2662;51.194;6.614;2023-03-12T01:03:06;10.07;;;4.70;;
5277;SDS011;2662;51.194;6.614;2023-03-12T01:05:33;9.70;;;4.63;;
5277;SDS011;2662;51.194;6.614;2023-03-12T01:08:01;8.73;;;4.37;;
5277;SDS011;2662;51.194;6.614;2023-03-12T01:10:29;9.63;;;4.20;;
5277;SDS011;2662;51.194;6.614;2023-03-12T01:12:56;7.83;;;4.73;;
5277;SDS011;2662;51.194;6.614;2023-03-12T01:15:24;6.70;;;4.00;;
5277;SDS011;2662;51.194;6.614;2023-03-12T01:17:51;8.00;;;4.33;;
5277;SDS011;2662;51.194;6.614;2023-03-12T01:20:18;8.10;;;4.10;;
5277;SDS011;2662;51.194;6.614;2023-03-12T01:22:47;9.07;;;4.57;;
5277;SDS011;2662;51.194;6.614;2023-03-12T01:25:13;9.57;;;4.57;;
5277;SDS011;2662;51.194;6.614;2023-03-12T01:27:40;8.33;;;4.93;;
5277;SDS011;2662;51.194;6.614;2023-03-12T01:30:07;13.13;;;4.20;;
5277;SDS011;2662;51.194;6.614;2023-03-12T01:32:36;8.13;;;4.47;;
5277;SDS011;2662;51.194;6.614;2023-03-12T01:35:03;8.50;;;4.33;;
5277;SDS011;2662;51.194;6.614;2023-03-12T01:37:31;17.13;;;4.03;;
5277;SDS011;2662;51.194;6.614;2023-03-12T01:39:58;6.00;;;4.03;;
5277;SDS011;2662;51.194;6.614;2023-03-12T01:42:25;9.03;;;4.50;;
5277;SDS011;2662;51.194;6.614;2023-03-12T01:44:52;4.40;;;3.63;;
5277;SDS011;2662;51.194;6.614;2023-03-12T01:47:20;6.00;;;4.00;;
5277;SDS011;2662;51.194;6.614;2023-03-12T01:49:49;6.67;;;4.03;;
5277;SDS011;2662;51.194;6.614;2023-03-12T01:52:18;8.60;;;3.83;;
5277;SDS011;2662;51.194;6.614;2023-03-12T01:54:48;8.13;;;3.90;;
5277;SDS011;2662;51.194;6.614;2023-03-12T01:57:19;4.93;;;3.80;;
5277;SDS011;2662;51.194;6.614;2023-03-12T01:59:49;5.40;;;3.93;;
5277;SDS011;2662;51.194;6.614;2023-03-12T02:02:18;4.20;;;3.20;;
5277;SDS011;2662;51.194;6.614;2023-03-12T02:04:52;10.40;;;3.90;;
5277;SDS011;2662;51.194;6.614;2023-03-12T02:07:29;6.50;;;4.27;;
5277;SDS011;2662;51.194;6.614;2023-03-12T02:09:56;8.60;;;4.10;;
5277;SDS011;2662;51.194;6.614;2023-03-12T02:12:23;6.80;;;4.37;;
5277;SDS011;2662;51.194;6.614;2023-03-12T02:14:49;3.60;;;3.30;;
5277;SDS011;2662;51.194;6.614;2023-03-12T02:17:16;4.67;;;3.30;;
5277;SDS011;2662;51.194;6.614;2023-03-12T02:19:45;5.30;;;3.50;;
5277;SDS011;2662;51.194;6.614;2023-03-12T02:22:17;9.10;;;3.37;;
5277;SDS011;2662;51.194;6.614;2023-03-12T02:24:45;9.00;;;3.87;;
5277;SDS011;2662;51.194;6.614;2023-03-12T02:27:16;4.70;;;3.37;;
5277;SDS011;2662;51.194;6.614;2023-03-12T02:29:44;7.00;;;3.40;;
5277;SDS011;2662;51.194;6.614;2023-03-12T02:32:14;6.40;;;4.37;;
5277;SDS011;2662;51.194;6.614;2023-03-12T02:34:45;7.47;;;3.73;;
5277;SDS011;2662;51.194;6.614;2023-03-12T02:37:12;6.17;;;3.10;;
5277;SDS011;2662;51.194;6.614;2023-03-12T02:39:39;10.63;;;3.73;;
5277;SDS011;2662;51.194;6.614;2023-03-12T02:42:07;12.80;;;2.90;;
5277;SDS011;2662;51.194;6.614;2023-03-12T02:44:35;7.10;;;3.47;;
5277;SDS011;2662;51.194;6.614;2023-03-12T02:47:02;13.53;;;3.97;;
5277;SDS011;2662;51.194;6.614;2023-03-12T02:49:30;4.40;;;3.33;;
5277;SDS011;2662;51.194;6.614;2023-03-12T02:51:59;5.13;;;3.10;;
5277;SDS011;2662;51.194;6.614;2023-03-12T02:54:27;4.60;;;2.97;;
5277;SDS011;2662;51.194;6.614;2023-03-12T02:56:54;12.30;;;3.43;;
5277;SDS011;2662;51.194;6.614;2023-03-12T02:59:21;5.80;;;3.23;;
5277;SDS011;2662;51.194;6.614;2023-03-12T03:01:52;4.60;;;3.47;;
5277;SDS011;2662;51.194;6.614;2023-03-12T03:04:19;5.07;;;2.93;;
5277;SDS011;2662;51.194;6.614;2023-03-12T03:06:46;7.60;;;3.10;;
5277;SDS011;2662;51.194;6.614;2023-03-12T03:09:13;5.30;;;3.20;;
5277;SDS011;2662;51.194;6.614;2023-03-12T03:11:40;5.13;;;2.93;;
5277;SDS011;2662;51.194;6.614;2023-03-12T03:14:06;7.13;;;3.10;;
5277;SDS011;2662;51.194;6.614;2023-03-12T03:16:34;5.83;;;2.70;;
5277;SDS011;2662;51.194;6.614;2023-03-12T03:19:02;6.50;;;3.23;;
5277;SDS011;2662;51.194;6.614;2023-03-12T03:21:29;6.13;;;2.60;;
5277;SDS011;2662;51.194;6.614;2023-03-12T03:23:56;11.83;;;3.17;;
5277;SDS011;2662;51.194;6.614;2023-03-12T03:26:23;4.90;;;3.10;;
5277;SDS011;2662;51.194;6.614;2023-03-12T03:28:50;8.60;;;2.70;;
5277;SDS011;2662;51.194;6.614;2023-03-12T03:31:17;5.00;;;2.80;;
5277;SDS011;2662;51.194;6.614;2023-03-12T03:33:44;5.83;;;2.50;;
5277;SDS011;2662;51.194;6.614;2023-03-12T03:36:13;5.50;;;2.50;;
5277;SDS011;2662;51.194;6.614;2023-03-12T03:38:40;4.00;;;2.33;;
5277;SDS011;2662;51.194;6.614;2023-03-12T03:41:11;7.17;;;2.63;;
5277;SDS011;2662;51.194;6.614;2023-03-12T03:43:38;2.60;;;2.40;;
5277;SDS011;2662;51.194;6.614;2023-03-12T03:46:05;2.70;;;2.50;;
5277;SDS011;2662;51.194;6.614;2023-03-12T03:48:32;3.27;;;2.73;;
5277;SDS011;2662;51.194;6.614;2023-03-12T03:50:59;5.53;;;3.00;;
5277;SDS011;2662;51.194;6.614;2023-03-12T03:53:27;5.50;;;2.20;;
5277;SDS011;2662;51.194;6.614;2023-03-12T03:55:55;6.90;;;2.90;;
5277;SDS011;2662;51.194;6.614;2023-03-12T03:58:21;5.93;;;2.77;;
5277;SDS011;2662;51.194;6.614;2023-03-12T04:00:48;5.30;;;2.60;;
5277;SDS011;2662;51.194;6.614;2023-03-12T04:03:15;3.57;;;2.43;;
5277;SDS011;2662;51.194;6.614;2023-03-12T04:05:42;6.43;;;2.50;;
5277;SDS011;2662;51.194;6.614;2023-03-12T04:08:09;4.10;;;2.40;;
5277;SDS011;2662;51.194;6.614;2023-03-12T04:10:38;21.17;;;3.20;;
5277;SDS011;2662;51.194;6.614;2023-03-12T04:13:05;6.93;;;2.50;;
5277;SDS011;2662;51.194;6.614;2023-03-12T04:15:31;5.03;;;3.00;;
5277;SDS011;2662;51.194;6.614;2023-03-12T04:17:58;6.63;;;2.80;;
5277;SDS011;2662;51.194;6.614;2023-03-12T04:20:25;5.40;;;2.60;;
5277;SDS011;2662;51.194;6.614;2023-03-12T04:22:51;9.20;;;2.83;;
5277;SDS011;2662;51.194;6.614;2023-03-12T04:25:18;4.00;;;2.87;;
5277;SDS011;2662;51.194;6.614;2023-03-12T04:27:46;6.03;;;2.67;;
5277;SDS011;2662;51.194;6.614;2023-03-12T04:30:13;2.47;;;2.27;;
5277;SDS011;2662;51.194;6.614;2023-03-12T04:32:40;3.30;;;2.93;;
5277;SDS011;2662;51.194;6.614;2023-03-12T04:35:07;4.20;;;2.67;;
5277;SDS011;2662;51.194;6.614;2023-03-12T04:37:33;6.33;;;2.37;;
5277;SDS011;2662;51.194;6.614;2023-03-12T04:40:00;3.03;;;2.50;;
5277;SDS011;2662;51.194;6.614;2023-03-12T04:42:31;5.90;;;2.47;;
5277;SDS011;2662;51.194;6.614;2023-03-12T04:45:00;4.30;;;2.40;;
5277;SDS011;2662;51.194;6.614;2023-03-12T04:47:27;4.37;;;2.43;;
5277;SDS011;2662;51.194;6.614;2023-03-12T04:49:55;4.87;;;2.60;;
5277;SDS011;2662;51.194;6.614;2023-03-12T04:52:22;3.90;;;2.43;;
5277;SDS011;2662;51.194;6.614;2023-03-12T04:54:49;8.83;;;3.00;;
5277;SDS011;2662;51.194;6.614;2023-03-12T04:57:16;3.43;;;2.40;;
5277;SDS011;2662;51.194;6.614;2023-03-12T04:59:42;3.70;;;2.40;;
5277;SDS011;2662;51.194;6.614;2023-03-12T05:02:10;4.20;;;2.77;;
5277;SDS011;2662;51.194;6.614;2023-03-12T05:04:37;4.20;;;2.27;;
5277;SDS011;2662;51.194;6.614;2023-03-12T05:07:04;8.83;;;2.47;;
5277;SDS011;2662;51.194;6.614;2023-03-12T05:09:31;3.40;;;2.60;;
5277;SDS011;2662;51.194;6.614;2023-03-12T05:11:57;9.23;;;2.37;;
5277;SDS011;2662;51.194;6.614;2023-03-12T05:14:24;11.83;;;2.77;;
5277;SDS011;2662;51.194;6.614;2023-03-12T05:16:51;6.57;;;2.70;;
5277;SDS011;2662;51.194;6.614;2023-03-12T05:19:19;6.60;;;2.80;;
5277;SDS011;2662;51.194;6.614;2023-03-12T05:21:46;5.07;;;2.47;;
5277;SDS011;2662;51.194;6.614;2023-03-12T05:24:12;4.73;;;2.20;;
5277;SDS011;2662;51.194;6.614;2023-03-12T05:26:41;4.43;;;2.10;;
5277;SDS011;2662;51.194;6.614;2023-03-12T05:29:08;4.00;;;2.13;;
5277;SDS011;2662;51.194;6.614;2023-03-12T05:31:34;4.97;;;2.37;;
5277;SDS011;2662;51.194;6.614;2023-03-12T05:34:01;4.67;;;2.13;;
5277;SDS011;2662;51.194;6.614;2023-03-12T05:36:31;3.63;;;2.27;;
5277;SDS011;2662;51.194;6.614;2023-03-12T05:38:58;2.80;;;1.97;;
5277;SDS011;2662;51.194;6.614;2023-03-12T05:41:25;6.73;;;1.80;;
5277;SDS011;2662;51.194;6.614;2023-03-12T05:43:54;9.57;;;2.10;;
5277;SDS011;2662;51.194;6.614;2023-03-12T05:46:22;9.37;;;2.37;;
5277;SDS011;2662;51.194;6.614;2023-03-12T05:48:49;4.77;;;2.20;;
5277;SDS011;2662;51.194;6.614;2023-03-12T05:51:17;2.10;;;2.00;;
5277;SDS011;2662;51.194;6.614;2023-03-12T05:53:45;5.03;;;2.17;;
5277;SDS011;2662;51.194;6.614;2023-03-12T05:56:12;6.93;;;2.33;;
5277;SDS011;2662;51.194;6.614;2023-03-12T05:58:41;3.30;;;2.20;;
5277;SDS011;2662;51.194;6.614;2023-03-12T06:01:12;8.40;;;2.30;;
5277;SDS011;2662;51.194;6.614;2023-03-12T06:03:39;5.43;;;2.17;;
5277;SDS011;2662;51.194;6.614;2023-03-12T06:06:07;7.30;;;2.53;;
5277;SDS011;2662;51.194;6.614;2023-03-12T06:08:34;6.87;;;2.67;;
5277;SDS011;2662;51.194;6.614;2023-03-12T06:11:02;6.07;;;2.27;;
5277;SDS011;2662;51.194;6.614;2023-03-12T06:13:29;5.90;;;2.40;;
5277;SDS011;2662;51.194;6.614;2023-03-12T06:16:00;5.03;;;2.17;;
5277;SDS011;2662;51.194;6.614;2023-03-12T06:18:28;4.80;;;2.60;;
5277;SDS011;2662;51.194;6.614;2023-03-12T06:20:55;7.30;;;3.00;;
5277;SDS011;2662;51.194;6.614;2023-03-12T06:23:32;4.37;;;2.70;;
5277;SDS011;2662;51.194;6.614;2023-03-12T06:25:58;3.77;;;2.60;;
5277;SDS011;2662;51.194;6.614;2023-03-12T06:28:26;3.80;;;2.43;;
5277;SDS011;2662;51.194;6.614;2023-03-12T06:30:53;4.50;;;2.67;;
5277;SDS011;2662;51.194;6.614;2023-03-12T06:33:21;4.57;;;2.57;;
5277;SDS011;2662;51.194;6.614;2023-03-12T06:35:47;2.70;;;1.90;;
5277;SDS011;2662;51.194;6.614;2023-03-12T06:38:18;2.47;;;2.27;;
5277;SDS011;2662;51.194;6.614;2023-03-12T06:40:51;8.33;;;2.37;;
5277;SDS011;2662;51.194;6.614;2023-03-12T06:43:19;12.97;;;2.97;;
5277;SDS011;2662;51.194;6.614;2023-03-12T06:45:47;7.50;;;2.60;;
5277;SDS011;2662;51.194;6.614;2023-03-12T06:48:14;4.73;;;2.80;;
5277;SDS011;2662;51.194;6.614;2023-03-12T06:50:41;3.83;;;2.93;;
5277;SDS011;2662;51.194;6.614;2023-03-12T06:53:07;3.07;;;2.60;;
5277;SDS011;2662;51.194;6.614;2023-03-12T06:55:34;3.80;;;2.50;;
5277;SDS011;2662;51.194;6.614;2023-03-12T06:58:01;7.90;;;3.50;;
5277;SDS011;2662;51.194;6.614;2023-03-12T07:00:28;7.13;;;3.20;;
5277;SDS011;2662;51.194;6.614;2023-03-12T07:02:56;3.67;;;2.37;;
5277;SDS011;2662;51.194;6.614;2023-03-12T07:05:23;6.30;;;3.00;;
5277;SDS011;2662;51.194;6.614;2023-03-12T07:07:50;5.10;;;3.27;;
5277;SDS011;2662;51.194;6.614;2023-03-12T07:10:17;10.77;;;2.50;;
5277;SDS011;2662;51.194;6.614;2023-03-12T07:12:44;5.40;;;2.60;;
5277;SDS011;2662;51.194;6.614;2023-03-12T07:15:11;3.00;;;2.57;;
5277;SDS011;2662;51.194;6.614;2023-03-12T07:17:38;11.00;;;2.90;;
5277;SDS011;2662;51.194;6.614;2023-03-12T07:20:07;3.30;;;2.53;;
5277;SDS011;2662;51.194;6.614;2023-03-12T07:22:34;12.80;;;2.97;;
5277;SDS011;2662;51.194;6.614;2023-03-12T07:25:01;10.10;;;3.97;;
5277;SDS011;2662;51.194;6.614;2023-03-12T07:27:28;2.90;;;2.50;;
5277;SDS011;2662;51.194;6.614;2023-03-12T07:29:55;2.50;;;2.30;;
5277;SDS011;2662;51.194;6.614;2023-03-12T07:32:22;7.37;;;2.47;;
5277;SDS011;2662;51.194;6.614;2023-03-12T07:34:49;4.23;;;2.67;;
5277;SDS011;2662;51.194;6.614;2023-03-12T07:37:17;15.40;;;3.00;;
5277;SDS011;2662;51.194;6.614;2023-03-12T07:39:43;6.67;;;2.90;;
5277;SDS011;2662;51.194;6.614;2023-03-12T07:42:15;6.23;;;2.50;;
5277;SDS011;2662;51.194;6.614;2023-03-12T07:44:41;7.30;;;2.77;;
5277;SDS011;2662;51.194;6.614;2023-03-12T07:47:08;6.73;;;3.20;;
5277;SDS011;2662;51.194;6.614;2023-03-12T07:49:35;6.23;;;2.40;;
5277;SDS011;2662;51.194;6.614;2023-03-12T07:52:02;3.03;;;2.70;;
5277;SDS011;2662;51.194;6.614;2023-03-12T07:54:30;5.30;;;2.77;;
5277;SDS011;2662;51.194;6.614;2023-03-12T07:56:57;3.60;;;2.83;;
5277;SDS011;2662;51.194;6.614;2023-03-12T07:59:24;4.57;;;2.50;;
5277;SDS011;2662;51.194;6.614;2023-03-12T08:01:51;14.83;;;2.90;;
5277;SDS011;2662;51.194;6.614;2023-03-12T08:04:18;6.53;;;3.03;;
5277;SDS011;2662;51.194;6.614;2023-03-12T08:06:45;7.97;;;2.90;;
5277;SDS011;2662;51.194;6.614;2023-03-12T08:09:12;5.70;;;2.50;;
5277;SDS011;2662;51.194;6.614;2023-03-12T08:11:40;4.20;;;2.93;;
5277;SDS011;2662;51.194;6.614;2023-03-12T08:14:07;5.80;;;3.13;;
5277;SDS011;2662;51.194;6.614;2023-03-12T08:16:34;5.50;;;2.70;;
5277;SDS011;2662;51.194;6.614;2023-03-12T08:19:00;5.87;;;2.83;;
5277;SDS011;2662;51.194;6.614;2023-03-12T08:21:27;4.77;;;2.77;;
5277;SDS011;2662;51.194;6.614;2023-03-12T08:23:54;4.67;;;3.30;;
5277;SDS011;2662;51.194;6.614;2023-03-12T08:26:20;7.83;;;3.17;;
5277;SDS011;2662;51.194;6.614;2023-03-12T08:28:49;6.37;;;2.73;;
5277;SDS011;2662;51.194;6.614;2023-03-12T08:31:15;4.10;;;3.30;;
5277;SDS011;2662;51.194;6.614;2023-03-12T08:33:42;4.60;;;3.43;;
5277;SDS011;2662;51.194;6.614;2023-03-12T08:36:11;4.57;;;3.20;;
5277;SDS011;2662;51.194;6.614;2023-03-12T08:38:38;8.20;;;3.57;;
5277;SDS011;2662;51.194;6.614;2023-03-12T08:41:05;3.20;;;2.70;;
5277;SDS011;2662;51.194;6.614;2023-03-12T08:43:31;14.90;;;3.80;;
5277;SDS011;2662;51.194;6.614;2023-03-12T08:46:00;4.97;;;3.03;;
5277;SDS011;2662;51.194;6.614;2023-03-12T08:48:28;4.10;;;3.27;;
5277;SDS011;2662;51.194;6.614;2023-03-12T08:50:56;9.13;;;3.37;;
5277;SDS011;2662;51.194;6.614;2023-03-12T08:53:26;5.60;;;2.97;;
5277;SDS011;2662;51.194;6.614;2023-03-12T08:55:53;5.53;;;3.30;;
5277;SDS011;2662;51.194;6.614;2023-03-12T08:58:20;3.30;;;3.00;;
5277;SDS011;2662;51.194;6.614;2023-03-12T09:00:48;3.63;;;3.33;;
5277;SDS011;2662;51.194;6.614;2023-03-12T09:03:17;4.37;;;3.20;;
5277;SDS011;2662;51.194;6.614;2023-03-12T09:05:45;4.83;;;3.70;;
5277;SDS011;2662;51.194;6.614;2023-03-12T09:08:13;7.93;;;4.10;;
5277;SDS011;2662;51.194;6.614;2023-03-12T09:10:45;6.70;;;3.90;;
5277;SDS011;2662;51.194;6.614;2023-03-12T09:13:13;6.20;;;3.80;;
5277;SDS011;2662;51.194;6.614;2023-03-12T09:15:40;7.00;;;4.50;;
5277;SDS011;2662;51.194;6.614;2023-03-12T09:18:06;7.37;;;4.13;;
5277;SDS011;2662;51.194;6.614;2023-03-12T09:20:34;8.33;;;4.20;;
5277;SDS011;2662;51.194;6.614;2023-03-12T09:23:01;10.90;;;3.80;;
5277;SDS011;2662;51.194;6.614;2023-03-12T09:25:28;14.07;;;4.60;;
5277;SDS011;2662;51.194;6.614;2023-03-12T09:27:55;8.30;;;4.40;;
5277;SDS011;2662;51.194;6.614;2023-03-12T09:30:22;6.17;;;3.83;;
5277;SDS011;2662;51.194;6.614;2023-03-12T09:32:51;7.23;;;4.33;;
5277;SDS011;2662;51.194;6.614;2023-03-12T09:35:18;7.70;;;4.10;;
5277;SDS011;2662;51.194;6.614;2023-03-12T09:37:48;6.67;;;4.40;;
5277;SDS011;2662;51.194;6.614;2023-03-12T09:40:15;6.07;;;4.47;;
5277;SDS011;2662;51.194;6.614;2023-03-12T09:42:45;9.73;;;5.17;;
5277;SDS011;2662;51.194;6.614;2023-03-12T09:45:15;8.23;;;4.37;;
5277;SDS011;2662;51.194;6.614;2023-03-12T09:47:45;4.97;;;4.20;;
5277;SDS011;2662;51.194;6.614;2023-03-12T09:50:16;8.60;;;4.60;;
5277;SDS011;2662;51.194;6.614;2023-03-12T09:52:51;6.53;;;4.30;;
5277;SDS011;2662;51.194;6.614;2023-03-12T09:55:22;8.90;;;5.03;;
5277;SDS011;2662;51.194;6.614;2023-03-12T09:57:50;7.07;;;4.10;;
5277;SDS011;2662;51.194;6.614;2023-03-12T10:00:18;6.00;;;4.53;;
5277;SDS011;2662;51.194;6.614;2023-03-12T10:02:52;5.90;;;4.47;;
5277;SDS011;2662;51.194;6.614;2023-03-12T10:05:31;9.47;;;4.60;;
5277;SDS011;2662;51.194;6.614;2023-03-12T10:08:03;11.10;;;4.70;;
5277;SDS011;2662;51.194;6.614;2023-03-12T10:10:38;7.23;;;4.50;;
5277;SDS011;2662;51.194;6.614;2023-03-12T10:13:18;5.27;;;4.47;;
5277;SDS011;2662;51.194;6.614;2023-03-12T10:16:00;7.30;;;4.60;;
5277;SDS011;2662;51.194;6.614;2023-03-12T10:18:37;6.13;;;4.60;;
5277;SDS011;2662;51.194;6.614;2023-03-12T10:21:21;6.50;;;5.00;;
5277;SDS011;2662;51.194;6.614;2023-03-12T10:24:02;7.23;;;5.00;;
5277;SDS011;2662;51.194;6.614;2023-03-12T10:26:48;6.07;;;4.57;;
5277;SDS011;2662;51.194;6.614;2023-03-12T10:29:16;5.77;;;4.30;;
5277;SDS011;2662;51.194;6.614;2023-03-12T10:31:50;6.30;;;4.47;;
5277;SDS011;2662;51.194;6.614;2023-03-12T10:34:22;4.90;;;4.50;;
5277;SDS011;2662;51.194;6.614;2023-03-12T10:36:54;5.23;;;4.73;;
5277;SDS011;2662;51.194;6.614;2023-03-12T10:39:26;7.37;;;4.60;;
5277;SDS011;2662;51.194;6.614;2023-03-12T10:41:53;8.13;;;4.07;;
5277;SDS011;2662;51.194;6.614;2023-03-12T10:44:22;5.13;;;4.63;;
5277;SDS011;2662;51.194;6.614;2023-03-12T10:46:52;5.70;;;4.07;;
5277;SDS011;2662;51.194;6.614;2023-03-12T10:49:30;5.30;;;3.93;;
5277;SDS011;2662;51.194;6.614;2023-03-12T10:52:00;4.40;;;4.00;;
5277;SDS011;2662;51.194;6.614;2023-03-12T10:54:31;5.00;;;4.50;;
5277;SDS011;2662;51.194;6.614;2023-03-12T10:57:04;7.13;;;4.73;;
5277;SDS011;2662;51.194;6.614;2023-03-12T10:59:32;6.23;;;4.97;;
5277;SDS011;2662;51.194;6.614;2023-03-12T11:02:01;5.73;;;4.63;;
5277;SDS011;2662;51.194;6.614;2023-03-12T11:04:28;7.60;;;4.73;;
5277;SDS011;2662;51.194;6.614;2023-03-12T11:07:13;6.30;;;4.00;;
5277;SDS011;2662;51.194;6.614;2023-03-12T11:09:45;7.97;;;5.20;;
5277;SDS011;2662;51.194;6.614;2023-03-12T11:12:28;8.60;;;5.97;;
5277;SDS011;2662;51.194;6.614;2023-03-12T11:14:55;13.87;;;6.00;;
5277;SDS011;2662;51.194;6.614;2023-03-12T11:17:23;14.37;;;5.50;;
5277;SDS011;2662;51.194;6.614;2023-03-12T11:19:51;11.10;;;5.60;;
5277;SDS011;2662;51.194;6.614;2023-03-12T11:22:28;9.17;;;4.93;;
5277;SDS011;2662;51.194;6.614;2023-03-12T11:24:58;12.60;;;5.83;;
5277;SDS011;2662;51.194;6.614;2023-03-12T11:27:33;13.00;;;6.13;;
5277;SDS011;2662;51.194;6.614;2023-03-12T11:30:06;16.47;;;6.20;;
5277;SDS011;2662;51.194;6.614;2023-03-12T11:32:37;14.87;;;6.00;;
5277;SDS011;2662;51.194;6.614;2023-03-12T11:35:08;17.63;;;6.90;;
5277;SDS011;2662;51.194;6.614;2023-03-12T11:37:38;26.03;;;8.53;;
5277;SDS011;2662;51.194;6.614;2023-03-12T11:40:18;14.20;;;6.37;;
5277;SDS011;2662;51.194;6.614;2023-03-12T11:42:59;27.87;;;7.90;;
5277;SDS011;2662;51.194;6.614;2023-03-12T11:45:39;18.13;;;7.20;;
5277;SDS011;2662;51.194;6.614;2023-03-12T11:48:15;13.87;;;7.10;;
5277;SDS011;2662;51.194;6.614;2023-03-12T11:50:50;23.20;;;8.10;;
5277;SDS011;2662;51.194;6.614;2023-03-12T11:53:38;24.90;;;6.67;;
5277;SDS011;2662;51.194;6.614;2023-03-12T11:56:26;26.67;;;7.60;;
5277;SDS011;2662;51.194;6.614;2023-03-12T11:58:58;19.87;;;7.43;;
5277;SDS011;2662;51.194;6.614;2023-03-12T12:01:50;25.23;;;7.70;;
5277;SDS011;2662;51.194;6.614;2023-03-12T12:04:39;34.87;;;7.73;;
5277;SDS011;2662;51.194;6.614;2023-03-12T12:07:18;27.30;;;8.60;;
5277;SDS011;2662;51.194;6.614;2023-03-12T12:09:55;31.63;;;8.23;;
5277;SDS011;2662;51.194;6.614;2023-03-12T12:12:33;24.93;;;7.20;;
5277;SDS011;2662;51.194;6.614;2023-03-12T12:15:13;30.33;;;8.53;;
5277;SDS011;2662;51.194;6.614;2023-03-12T12:17:52;26.00;;;7.47;;
5277;SDS011;2662;51.194;6.614;2023-03-12T12:20:30;20.37;;;6.83;;
5277;SDS011;2662;51.194;6.614;2023-03-12T12:23:14;29.90;;;6.70;;
5277;SDS011;2662;51.194;6.614;2023-03-12T12:25:53;18.83;;;6.63;;
5277;SDS011;2662;51.194;6.614;2023-03-12T12:31:42;30.10;;;7.00;;
5277;SDS011;2662;51.194;6.614;2023-03-12T12:34:20;28.40;;;6.60;;
5277;SDS011;2662;51.194;6.614;2023-03-12T12:37:16;30.00;;;7.60;;
5277;SDS011;2662;51.194;6.614;2023-03-12T12:39:47;26.40;;;6.47;;
5277;SDS011;2662;51.194;6.614;2023-03-12T12:42:20;23.30;;;6.53;;
5277;SDS011;2662;51.194;6.614;2023-03-12T12:44:52;28.27;;;7.17;;
5277;SDS011;2662;51.194;6.614;2023-03-12T12:47:23;23.17;;;6.13;;
5277;SDS011;2662;51.194;6.614;2023-03-12T12:49:59;25.47;;;6.03;;
5277;SDS011;2662;51.194;6.614;2023-03-12T12:52:28;24.90;;;6.10;;
5277;SDS011;2662;51.194;6.614;2023-03-12T12:54:56;25.13;;;5.60;;
5277;SDS011;2662;51.194;6.614;2023-03-12T12:57:33;13.70;;;4.43;;
5277;SDS011;2662;51.194;6.614;2023-03-12T13:00:11;23.23;;;4.73;;
5277;SDS011;2662;51.194;6.614;2023-03-12T13:02:46;21.80;;;4.90;;
5277;SDS011;2662;51.194;6.614;2023-03-12T13:05:19;28.53;;;4.87;;
5277;SDS011;2662;51.194;6.614;2023-03-12T13:07:50;22.43;;;4.40;;
5277;SDS011;2662;51.194;6.614;2023-03-12T13:13:08;19.27;;;5.13;;
5277;SDS011;2662;51.194;6.614;2023-03-12T13:15:37;20.77;;;4.70;;
5277;SDS011;2662;51.194;6.614;2023-03-12T13:18:16;27.17;;;5.27;;
5277;SDS011;2662;51.194;6.614;2023-03-12T13:20:59;14.00;;;4.07;;
5277;SDS011;2662;51.194;6.614;2023-03-12T13:23:35;20.03;;;5.00;;
5277;SDS011;2662;51.194;6.614;2023-03-12T13:26:14;19.73;;;4.43;;
5277;SDS011;2662;51.194;6.614;2023-03-12T13:28:56;19.90;;;4.47;;
5277;SDS011;2662;51.194;6.614;2023-03-12T13:31:33;19.50;;;4.80;;
5277;SDS011;2662;51.194;6.614;2023-03-12T13:37:19;29.37;;;4.90;;
5277;SDS011;2662;51.194;6.614;2023-03-12T13:39:57;18.90;;;3.67;;
5277;SDS011;2662;51.194;6.614;2023-03-12T13:42:35;27.77;;;4.77;;
5277;SDS011;2662;51.194;6.614;2023-03-12T13:45:23;29.10;;;4.73;;
5277;SDS011;2662;51.194;6.614;2023-03-12T13:47:52;30.47;;;4.83;;
5277;SDS011;2662;51.194;6.614;2023-03-12T13:50:22;23.53;;;5.40;;
5277;SDS011;2662;51.194;6.614;2023-03-12T13:52:54;33.60;;;6.23;;
5277;SDS011;2662;51.194;6.614;2023-03-12T13:55:29;20.33;;;5.07;;
5277;SDS011;2662;51.194;6.614;2023-03-12T13:57:58;15.53;;;5.50;;
5277;SDS011;2662;51.194;6.614;2023-03-12T14:00:30;27.17;;;5.30;;
5277;SDS011;2662;51.194;6.614;2023-03-12T14:03:04;20.90;;;5.27;;
5277;SDS011;2662;51.194;6.614;2023-03-12T14:05:42;22.23;;;4.57;;
5277;SDS011;2662;51.194;6.614;2023-03-12T14:08:16;25.70;;;4.67;;
5277;SDS011;2662;51.194;6.614;2023-03-12T14:11:28;27.80;;;4.07;;
5277;SDS011;2662;51.194;6.614;2023-03-12T14:14:21;18.47;;;4.10;;
5277;SDS011;2662;51.194;6.614;2023-03-12T14:17:15;24.83;;;5.20;;
5277;SDS011;2662;51.194;6.614;2023-03-12T14:19:45;26.63;;;5.63;;
5277;SDS011;2662;51.194;6.614;2023-03-12T14:22:14;34.07;;;4.80;;
5277;SDS011;2662;51.194;6.614;2023-03-12T14:24:48;32.53;;;4.90;;
5277;SDS011;2662;51.194;6.614;2023-03-12T14:27:19;16.93;;;3.10;;
5277;SDS011;2662;51.194;6.614;2023-03-12T14:29:54;24.27;;;4.60;;
5277;SDS011;2662;51.194;6.614;2023-03-12T14:32:26;17.00;;;3.90;;
5277;SDS011;2662;51.194;6.614;2023-03-12T14:34:56;19.80;;;3.87;;
5277;SDS011;2662;51.194;6.614;2023-03-12T14:37:28;26.77;;;4.10;;
5277;SDS011;2662;51.194;6.614;2023-03-12T14:40:03;31.30;;;4.63;;
5277;SDS011;2662;51.194;6.614;2023-03-12T14:42:39;23.70;;;4.20;;
5277;SDS011;2662;51.194;6.614;2023-03-12T14:45:09;28.13;;;4.30;;
5277;SDS011;2662;51.194;6.614;2023-03-12T14:47:40;28.77;;;4.50;;
5277;SDS011;2662;51.194;6.614;2023-03-12T14:50:14;17.77;;;4.70;;
5277;SDS011;2662;51.194;6.614;2023-03-12T14:52:42;16.87;;;3.87;;
5277;SDS011;2662;51.194;6.614;2023-03-12T14:55:13;16.97;;;4.07;;
5277;SDS011;2662;51.194;6.614;2023-03-12T14:57:42;32.87;;;5.23;;
5277;SDS011;2662;51.194;6.614;2023-03-12T15:00:13;24.30;;;4.03;;
5277;SDS011;2662;51.194;6.614;2023-03-12T15:02:47;25.17;;;4.43;;
5277;SDS011;2662;51.194;6.614;2023-03-12T15:05:15;20.37;;;3.90;;
5277;SDS011;2662;51.194;6.614;2023-03-12T15:07:43;16.00;;;4.53;;
5277;SDS011;2662;51.194;6.614;2023-03-12T15:10:17;21.70;;;5.20;;
5277;SDS011;2662;51.194;6.614;2023-03-12T15:12:47;26.23;;;5.03;;
5277;SDS011;2662;51.194;6.614;2023-03-12T15:15:27;28.23;;;5.17;;
5277;SDS011;2662;51.194;6.614;2023-03-12T15:18:00;21.43;;;5.20;;
5277;SDS011;2662;51.194;6.614;2023-03-12T15:20:27;25.20;;;3.93;;
5277;SDS011;2662;51.194;6.614;2023-03-12T15:22:55;17.40;;;3.80;;
5277;SDS011;2662;51.194;6.614;2023-03-12T15:25:25;27.87;;;5.20;;
5277;SDS011;2662;51.194;6.614;2023-03-12T15:28:04;22.57;;;4.37;;
5277;SDS011;2662;51.194;6.614;2023-03-12T15:30:33;20.70;;;4.53;;
5277;SDS011;2662;51.194;6.614;2023-03-12T15:33:06;30.17;;;4.43;;
5277;SDS011;2662;51.194;6.614;2023-03-12T15:35:37;29.50;;;5.33;;
5277;SDS011;2662;51.194;6.614;2023-03-12T15:38:12;24.20;;;5.80;;